Time;durP1;ratioP1;P1;durP2;ratioP2;P2;SDS_P1;SDS_P2;PMS_P1;PMS_P2;Temp;Humidity;BMP_temperature;BMP_pressure;BME280_temperature;BME280_humidity;BME280_pressure;Samples;Min_cycle;Max_cycle;Signal;HPM_P1;HPM_P2
2023/06/08 00:00:30;;;;;;;;;;;14.40;77.60;;;;;;5024054;28;20630;-70
2023/06/08 00:03:04;;;;;;;;;;;14.40;78.10;;;;;;5044192;28;19932;-70
2023/06/08 00:05:43;;;;;;;;;;;14.40;78.90;;;;;;5024900;28;19933;-70
2023/06/08 00:08:10;;;;;;;;;;;14.30;77.70;;;;;;5027922;28;19983;-70
2023/06/08 00:10:42;;;;;;;;;;;14.30;77.80;;;;;;5017767;28;19933;-70
2023/06/08 00:13:10;;;;;;;;;;;14.30;77.60;;;;;;5013112;28;20385;-70
2023/06/08 00:15:37;;;;;;;;;;;14.30;77.80;;;;;;5022014;28;19968;-70
2023/06/08 00:18:08;;;;;;;;;;;14.20;78.10;;;;;;5026751;28;19949;-70
2023/06/08 00:20:39;;;;;;;;;;;14.20;79.00;;;;;;5014249;28;20305;-70
2023/06/08 00:23:06;;;;;;;;;;;14.10;78.20;;;;;;5009676;28;19929;-70
2023/06/08 00:25:33;;;;;;;;;;;14.00;78.30;;;;;;5020857;28;19990;-70
2023/06/08 00:28:00;;;;;;;;;;;14.00;78.90;;;;;;5026901;28;19929;-70
2023/06/08 00:30:27;;;;;;;;;;;13.90;79.40;;;;;;5021636;28;19968;-70
2023/06/08 00:32:54;;;;;;;;;;;13.90;79.20;;;;;;5024294;28;20352;-70
2023/06/08 00:35:21;;;;;;;;;;;13.80;80.20;;;;;;5019222;28;19933;-70
2023/06/08 00:37:48;;;;;;;;;;;13.80;80.20;;;;;;5020496;28;20416;-70
2023/06/08 00:40:15;;;;;;;;;;;13.80;80.10;;;;;;5022927;28;20712;-70
2023/06/08 00:42:45;;;;;;;;;;;13.80;79.20;;;;;;5019492;28;19936;-70
2023/06/08 00:45:12;;;;;;;;;;;13.80;78.80;;;;;;5020067;28;19936;-70
2023/06/08 00:47:39;;;;;;;;;;;13.80;79.30;;;;;;5015089;28;19979;-70
2023/06/08 00:50:08;;;;;;;;;;;13.70;79.60;;;;;;5024146;28;19936;-70
2023/06/08 00:52:37;;;;;;;;;;;13.80;79.80;;;;;;5017768;28;20014;-70
2023/06/08 00:55:04;;;;;;;;;;;13.80;80.20;;;;;;5017404;28;20000;-70
2023/06/08 00:57:32;;;;;;;;;;;13.70;79.50;;;;;;5021579;28;19933;-71
2023/06/08 01:00:04;;;;;;;;;;;13.70;79.80;;;;;;5019330;28;19929;-70
2023/06/08 01:02:33;;;;;;;;;;;13.60;79.70;;;;;;5022286;28;19929;-70
2023/06/08 01:05:03;;;;;;;;;;;13.60;79.60;;;;;;5022733;28;19925;-70
2023/06/08 01:07:48;;;;;;;;;;;13.50;80.20;;;;;;5035726;23;19937;-70
2023/06/08 01:14:02;;;;;;;;;;;13.50;78.80;;;;;;5041600;23;20012;-69
2023/06/08 01:16:37;;;;;;;;;;;13.40;79.60;;;;;;5063034;28;19932;-70
2023/06/08 01:19:10;;;;;;;;;;;13.40;79.40;;;;;;5040519;28;20019;-70
2023/06/08 01:21:59;;;;;;;;;;;13.40;79.50;;;;;;5054229;28;19929;-70
2023/06/08 01:24:30;;;;;;;;;;;13.40;80.10;;;;;;5043075;28;19936;-76
2023/06/08 01:26:59;;;;;;;;;;;13.30;80.50;;;;;;5045512;28;19933;-75
2023/06/08 01:29:27;;;;;;;;;;;13.20;80.50;;;;;;5040871;28;20012;-75
2023/06/08 01:31:55;;;;;;;;;;;13.20;80.10;;;;;;5045626;28;20566;-75
2023/06/08 01:34:22;;;;;;;;;;;13.00;80.80;;;;;;5049851;28;19941;-75
2023/06/08 01:36:51;;;;;;;;;;;12.90;81.40;;;;;;5037274;28;19932;-75
2023/06/08 01:39:33;;;;;;;;;;;12.90;81.90;;;;;;5050193;28;20002;-75
2023/06/08 01:42:02;;;;;;;;;;;12.80;82.70;;;;;;5040075;28;19939;-75
2023/06/08 01:44:32;;;;;;;;;;;12.80;84.00;;;;;;5039741;28;20459;-75
2023/06/08 01:47:00;;;;;;;;;;;12.80;84.10;;;;;;5041562;28;19932;-75
2023/06/08 01:49:28;;;;;;;;;;;12.80;84.10;;;;;;5046012;28;20060;-75
2023/06/08 01:51:55;;;;;;;;;;;12.80;84.50;;;;;;5064182;28;20051;-75
2023/06/08 01:54:22;;;;;;;;;;;12.80;84.70;;;;;;5036473;28;20337;-75
2023/06/08 01:56:48;;;;;;;;;;;12.80;84.40;;;;;;5045415;28;20419;-75
2023/06/08 01:59:15;;;;;;;;;;;12.80;84.90;;;;;;5038293;28;20638;-75
2023/06/08 02:01:42;;;;;;;;;;;12.80;85.60;;;;;;5032890;28;19929;-75
2023/06/08 02:04:09;;;;;;;;;;;12.80;85.00;;;;;;5041151;28;20501;-75
2023/06/08 02:06:36;;;;;;;;;;;12.80;84.70;;;;;;5041932;28;19952;-75
2023/06/08 02:09:02;;;;;;;;;;;12.80;84.50;;;;;;5056415;28;19932;-75
2023/06/08 02:11:29;;;;;;;;;;;12.70;83.70;;;;;;5056203;28;19948;-75
2023/06/08 02:13:56;;;;;;;;;;;12.70;83.00;;;;;;5046980;28;19933;-75
2023/06/08 02:16:23;;;;;;;;;;;12.70;82.40;;;;;;5050688;28;19929;-75
2023/06/08 02:18:50;;;;;;;;;;;12.70;82.70;;;;;;5042661;28;19940;-75
2023/06/08 02:21:18;;;;;;;;;;;12.70;82.70;;;;;;5045386;28;19943;-75
2023/06/08 02:23:45;;;;;;;;;;;12.60;82.60;;;;;;5047631;28;19951;-74
2023/06/08 02:26:11;;;;;;;;;;;12.60;82.40;;;;;;5048131;28;19935;-75
2023/06/08 02:28:38;;;;;;;;;;;12.60;82.20;;;;;;5048185;28;20023;-75
2023/06/08 02:31:05;;;;;;;;;;;12.60;81.90;;;;;;5048869;28;19929;-75
2023/06/08 02:33:32;;;;;;;;;;;12.50;82.20;;;;;;5042483;28;19928;-75
2023/06/08 02:35:59;;;;;;;;;;;12.60;83.00;;;;;;5044224;28;19939;-75
2023/06/08 02:38:26;;;;;;;;;;;12.50;82.90;;;;;;5051335;28;19929;-75
2023/06/08 02:40:53;;;;;;;;;;;12.50;83.10;;;;;;5052134;28;19929;-75
2023/06/08 02:43:20;;;;;;;;;;;12.40;82.30;;;;;;5046642;28;19924;-75
2023/06/08 02:45:47;;;;;;;;;;;12.40;82.40;;;;;;5054191;28;20023;-75
2023/06/08 02:48:13;;;;;;;;;;;12.40;82.80;;;;;;5047230;28;19928;-75
2023/06/08 02:50:40;;;;;;;;;;;12.40;83.00;;;;;;5048303;28;20060;-75
2023/06/08 02:53:08;;;;;;;;;;;12.30;83.10;;;;;;5042226;28;20020;-75
2023/06/08 02:55:36;;;;;;;;;;;12.30;83.20;;;;;;5051913;28;20023;-75
2023/06/08 02:58:03;;;;;;;;;;;12.30;83.90;;;;;;5048895;28;19933;-75
2023/06/08 03:00:30;;;;;;;;;;;12.20;83.10;;;;;;5037810;28;20024;-75
2023/06/08 03:03:00;;;;;;;;;;;12.20;83.20;;;;;;5044313;28;19936;-75
2023/06/08 03:05:28;;;;;;;;;;;12.20;84.10;;;;;;5043787;28;19936;-74
2023/06/08 03:07:58;;;;;;;;;;;12.20;84.50;;;;;;5030300;28;19929;-75
2023/06/08 03:10:26;;;;;;;;;;;12.10;84.00;;;;;;5044481;28;19929;-75
2023/06/08 03:12:53;;;;;;;;;;;12.10;83.90;;;;;;5053308;28;19928;-75
2023/06/08 03:15:22;;;;;;;;;;;12.10;84.40;;;;;;5047184;28;19941;-75
2023/06/08 03:17:51;;;;;;;;;;;12.10;85.10;;;;;;5042276;28;19933;-75
2023/06/08 03:20:18;;;;;;;;;;;12.10;84.00;;;;;;5046199;28;20521;-75
2023/06/08 03:22:46;;;;;;;;;;;12.10;84.90;;;;;;5042179;28;20011;-75
2023/06/08 03:25:16;;;;;;;;;;;12.10;85.50;;;;;;5042723;28;20363;-75
2023/06/08 03:27:43;;;;;;;;;;;12.10;85.00;;;;;;5041721;28;19936;-75
2023/06/08 03:30:11;;;;;;;;;;;12.10;85.10;;;;;;5048694;28;19924;-75
2023/06/08 03:32:41;;;;;;;;;;;12.20;84.90;;;;;;5038884;28;19929;-75
2023/06/08 03:35:09;;;;;;;;;;;12.20;85.50;;;;;;5048060;28;19932;-75
2023/06/08 03:37:35;;;;;;;;;;;12.20;84.40;;;;;;5047117;28;20127;-75
2023/06/08 03:40:03;;;;;;;;;;;12.20;85.30;;;;;;5048363;28;19959;-75
2023/06/08 03:42:30;;;;;;;;;;;12.30;86.00;;;;;;5050375;28;20301;-75
2023/06/08 03:44:57;;;;;;;;;;;12.30;85.60;;;;;;5044932;28;20316;-75
2023/06/08 03:47:25;;;;;;;;;;;12.30;85.30;;;;;;5051130;28;20336;-75
2023/06/08 03:49:52;;;;;;;;;;;12.30;86.20;;;;;;5036386;28;19929;-75
2023/06/08 03:52:19;;;;;;;;;;;12.30;86.50;;;;;;5043220;28;19933;-75
2023/06/08 03:54:46;;;;;;;;;;;12.30;86.30;;;;;;5031094;28;19935;-75
2023/06/08 03:57:13;;;;;;;;;;;12.30;86.30;;;;;;5042693;28;20006;-75
2023/06/08 03:59:40;;;;;;;;;;;12.40;85.70;;;;;;5047260;28;19956;-75
2023/06/08 04:02:07;;;;;;;;;;;12.40;85.30;;;;;;5045622;28;19968;-75
2023/06/08 04:04:34;;;;;;;;;;;12.40;84.90;;;;;;5038277;28;19929;-75
2023/06/08 04:07:02;;;;;;;;;;;12.30;85.20;;;;;;5041513;28;20015;-75
2023/06/08 04:09:29;;;;;;;;;;;12.30;85.10;;;;;;5037912;28;19976;-75
2023/06/08 04:11:56;;;;;;;;;;;12.30;85.10;;;;;;5040096;28;20039;-75
2023/06/08 04:14:23;;;;;;;;;;;12.30;85.30;;;;;;5038689;28;19932;-75
2023/06/08 04:16:50;;;;;;;;;;;12.40;84.90;;;;;;5038437;28;20624;-75
2023/06/08 04:19:16;;;;;;;;;;;12.40;85.10;;;;;;5038455;28;19976;-75
2023/06/08 04:21:43;;;;;;;;;;;12.40;86.10;;;;;;5040698;28;20296;-75
2023/06/08 04:24:16;;;;;;;;;;;12.50;86.20;;;;;;5048110;28;19928;-75
2023/06/08 04:26:43;;;;;;;;;;;12.50;86.00;;;;;;5041913;28;20020;-75
2023/06/08 04:29:11;;;;;;;;;;;12.60;86.30;;;;;;5042637;28;20004;-75
2023/06/08 04:31:37;;;;;;;;;;;12.60;86.80;;;;;;5043719;28;19935;-75
2023/06/08 04:34:04;;;;;;;;;;;12.70;85.90;;;;;;5050883;28;19928;-75
2023/06/08 04:36:31;;;;;;;;;;;12.70;86.10;;;;;;5048469;28;20449;-75
2023/06/08 04:38:58;;;;;;;;;;;12.80;86.30;;;;;;5042417;28;20010;-75
2023/06/08 04:41:25;;;;;;;;;;;12.90;86.00;;;;;;5043598;28;19960;-74
2023/06/08 04:43:53;;;;;;;;;;;13.00;85.90;;;;;;5037628;28;20029;-75
2023/06/08 04:46:19;;;;;;;;;;;13.10;86.00;;;;;;5049960;28;19933;-75
2023/06/08 04:48:48;;;;;;;;;;;13.10;85.90;;;;;;5043420;28;19933;-76
2023/06/08 04:51:15;;;;;;;;;;;13.20;85.80;;;;;;5044992;28;19928;-75
2023/06/08 04:53:42;;;;;;;;;;;13.30;86.30;;;;;;5043504;28;20463;-75
2023/06/08 04:56:18;;;;;;;;;;;13.30;86.50;;;;;;5042684;28;19951;-70
2023/06/08 04:58:45;;;;;;;;;;;13.40;86.90;;;;;;5037652;28;20427;-69
2023/06/08 05:01:12;;;;;;;;;;;13.60;87.40;;;;;;5041276;28;19929;-71
2023/06/08 05:03:39;;;;;;;;;;;13.70;86.90;;;;;;5040203;28;19990;-70
2023/06/08 05:06:06;;;;;;;;;;;13.80;87.00;;;;;;5043718;28;19928;-71
2023/06/08 05:08:33;;;;;;;;;;;13.90;86.90;;;;;;5053044;28;19928;-70
2023/06/08 05:11:00;;;;;;;;;;;14.00;86.80;;;;;;5042621;28;19952;-70
2023/06/08 05:13:26;;;;;;;;;;;14.10;86.50;;;;;;5034898;28;19929;-70
2023/06/08 05:15:57;;;;;;;;;;;14.20;86.80;;;;;;5039156;28;19933;-70
2023/06/08 05:18:25;;;;;;;;;;;14.30;86.80;;;;;;5036380;28;19932;-70
2023/06/08 05:20:52;;;;;;;;;;;14.40;87.00;;;;;;5044667;28;20018;-72
2023/06/08 05:23:18;;;;;;;;;;;14.40;87.10;;;;;;5041502;28;20273;-73
2023/06/08 05:25:45;;;;;;;;;;;14.50;86.80;;;;;;5029928;28;19929;-73
2023/06/08 05:28:12;;;;;;;;;;;14.60;87.00;;;;;;5036164;28;19956;-73
2023/06/08 05:30:39;;;;;;;;;;;14.70;86.80;;;;;;5034139;28;19982;-73
2023/06/08 05:33:06;;;;;;;;;;;14.80;86.70;;;;;;5040268;28;19929;-71
2023/06/08 05:35:32;;;;;;;;;;;15.00;86.60;;;;;;5044378;28;19928;-71
2023/06/08 05:38:00;;;;;;;;;;;15.10;86.60;;;;;;5039462;28;20590;-70
2023/06/08 05:40:26;;;;;;;;;;;15.20;86.30;;;;;;5037725;28;19939;-70
2023/06/08 05:42:53;;;;;;;;;;;15.30;86.40;;;;;;5039531;28;19935;-70
2023/06/08 05:45:20;;;;;;;;;;;15.40;86.50;;;;;;5028704;28;19925;-70
2023/06/08 05:47:47;;;;;;;;;;;15.50;85.80;;;;;;5025843;28;20552;-69
2023/06/08 05:50:14;;;;;;;;;;;15.60;86.60;;;;;;5037529;28;19972;-70
2023/06/08 05:52:41;;;;;;;;;;;15.70;86.20;;;;;;5046476;28;20400;-70
2023/06/08 05:55:08;;;;;;;;;;;15.80;86.70;;;;;;5035495;28;19936;-70
2023/06/08 05:57:38;;;;;;;;;;;16.00;86.50;;;;;;5038898;28;19928;-70
2023/06/08 06:00:09;;;;;;;;;;;16.10;86.30;;;;;;5040379;28;19933;-70
2023/06/08 06:02:36;;;;;;;;;;;16.30;87.10;;;;;;5036366;28;20016;-70
2023/06/08 06:05:02;;;;;;;;;;;16.40;86.40;;;;;;5033109;28;19972;-70
2023/06/08 06:07:30;;;;;;;;;;;16.60;86.90;;;;;;5036946;28;19929;-70
2023/06/08 06:09:56;;;;;;;;;;;16.80;86.40;;;;;;5032437;28;19952;-70
2023/06/08 06:12:23;;;;;;;;;;;17.00;86.90;;;;;;5042555;28;19987;-70
2023/06/08 06:14:52;;;;;;;;;;;17.30;85.70;;;;;;5059515;28;19929;-69
2023/06/08 06:17:19;;;;;;;;;;;17.60;85.50;;;;;;5043990;28;19929;-70
2023/06/08 06:19:46;;;;;;;;;;;17.80;84.10;;;;;;5042587;28;19928;-70
2023/06/08 06:22:12;;;;;;;;;;;18.00;83.60;;;;;;5043210;28;19936;-70
2023/06/08 06:24:39;;;;;;;;;;;18.30;82.60;;;;;;5034423;28;20499;-70
2023/06/08 06:27:06;;;;;;;;;;;18.60;81.30;;;;;;5039732;28;19960;-70
2023/06/08 06:29:33;;;;;;;;;;;18.90;79.80;;;;;;5043346;28;19936;-70
2023/06/08 06:32:00;;;;;;;;;;;19.10;78.90;;;;;;5041222;28;20369;-70
2023/06/08 06:34:27;;;;;;;;;;;19.30;78.20;;;;;;5043592;28;19929;-70
2023/06/08 06:36:55;;;;;;;;;;;19.50;76.80;;;;;;5047524;28;20019;-70
2023/06/08 06:39:22;;;;;;;;;;;19.60;75.90;;;;;;5043735;28;20695;-70
2023/06/08 06:41:48;;;;;;;;;;;19.50;74.90;;;;;;5042772;28;19979;-70
2023/06/08 06:44:15;;;;;;;;;;;19.50;75.40;;;;;;5043896;28;19928;-70
2023/06/08 06:46:43;;;;;;;;;;;19.80;74.30;;;;;;5042908;28;19932;-70
2023/06/08 06:49:10;;;;;;;;;;;20.10;73.60;;;;;;5037996;28;20389;-70
2023/06/08 06:51:39;;;;;;;;;;;20.40;72.80;;;;;;5044187;28;19968;-70
2023/06/08 06:54:06;;;;;;;;;;;20.50;74.10;;;;;;5033615;28;19932;-70
2023/06/08 06:56:32;;;;;;;;;;;20.80;69.60;;;;;;5036537;28;20632;-70
2023/06/08 06:58:59;;;;;;;;;;;20.90;69.60;;;;;;5029612;28;20030;-70
2023/06/08 07:01:26;;;;;;;;;;;21.20;70.90;;;;;;5042022;28;20367;-70
2023/06/08 07:03:53;;;;;;;;;;;21.50;69.50;;;;;;5033008;28;19936;-70
2023/06/08 07:06:24;;;;;;;;;;;21.60;66.90;;;;;;5040427;28;19933;-70
2023/06/08 07:08:51;;;;;;;;;;;21.70;65.40;;;;;;5046679;28;19933;-70
2023/06/08 07:11:18;;;;;;;;;;;22.00;65.80;;;;;;5035242;28;19932;-70
2023/06/08 07:13:45;;;;;;;;;;;22.20;65.70;;;;;;5043028;28;20043;-70
2023/06/08 07:16:12;;;;;;;;;;;22.50;64.50;;;;;;5041399;28;19933;-78
2023/06/08 07:18:39;;;;;;;;;;;22.90;63.20;;;;;;5034969;28;19983;-78
2023/06/08 07:21:06;;;;;;;;;;;23.20;61.80;;;;;;5036175;28;19929;-78
2023/06/08 07:23:33;;;;;;;;;;;23.20;60.40;;;;;;5033596;28;19969;-78
2023/06/08 07:26:20;;;;;;;;;;;23.30;60.50;;;;;;5034372;28;20565;-78
2023/06/08 07:28:56;;;;;;;;;;;23.40;61.20;;;;;;5039517;28;19933;-78
2023/06/08 07:31:23;;;;;;;;;;;23.60;60.60;;;;;;5034885;28;19929;-78
2023/06/08 07:33:50;;;;;;;;;;;23.70;60.50;;;;;;5035162;28;19929;-78
2023/06/08 07:36:17;;;;;;;;;;;24.00;59.70;;;;;;5040555;28;19929;-81
2023/06/08 07:38:44;;;;;;;;;;;24.40;59.90;;;;;;5039404;28;20520;-71
2023/06/08 07:41:11;;;;;;;;;;;24.50;59.90;;;;;;5047285;28;19993;-77
2023/06/08 07:43:39;;;;;;;;;;;24.40;59.80;;;;;;5053192;28;19928;-77
2023/06/08 07:46:06;;;;;;;;;;;24.60;60.40;;;;;;5046593;28;19932;-78
2023/06/08 07:48:33;;;;;;;;;;;25.10;59.50;;;;;;5035000;28;19928;-80
2023/06/08 07:51:00;;;;;;;;;;;25.30;57.50;;;;;;5046188;28;19956;-78
2023/06/08 07:53:33;;;;;;;;;;;25.20;57.40;;;;;;5033838;28;19929;-78
2023/06/08 07:56:00;;;;;;;;;;;25.30;56.50;;;;;;5045299;28;19925;-78
2023/06/08 07:58:27;;;;;;;;;;;24.90;56.60;;;;;;5057934;28;20002;-78
2023/06/08 08:00:54;;;;;;;;;;;25.20;57.80;;;;;;5047212;28;20632;-79
2023/06/08 08:03:21;;;;;;;;;;;25.50;56.80;;;;;;5055399;28;19925;-78
2023/06/08 08:05:49;;;;;;;;;;;25.70;55.30;;;;;;5047458;28;19929;-78
2023/06/08 08:08:16;;;;;;;;;;;25.80;54.50;;;;;;5039341;28;19925;-78
2023/06/08 08:10:43;;;;;;;;;;;26.20;54.20;;;;;;5042651;28;19983;-78
2023/06/08 08:13:11;;;;;;;;;;;26.00;53.90;;;;;;5034161;28;20358;-78
2023/06/08 08:15:42;;;;;;;;;;;26.10;54.00;;;;;;5034051;28;19935;-78
2023/06/08 08:18:09;;;;;;;;;;;26.40;52.50;;;;;;5038053;28;19929;-78
2023/06/08 08:20:36;;;;;;;;;;;26.50;52.60;;;;;;5031027;28;19979;-78
2023/06/08 08:23:02;;;;;;;;;;;26.60;52.20;;;;;;5037405;28;19987;-78
2023/06/08 08:25:29;;;;;;;;;;;26.70;53.00;;;;;;5053107;28;19929;-78
2023/06/08 08:27:56;;;;;;;;;;;27.00;50.90;;;;;;5038489;28;20639;-78
2023/06/08 08:30:23;;;;;;;;;;;26.80;52.30;;;;;;5042941;28;19933;-78
2023/06/08 08:32:50;;;;;;;;;;;26.90;52.40;;;;;;5037868;28;19935;-78
2023/06/08 08:35:17;;;;;;;;;;;27.10;52.10;;;;;;5043651;28;19974;-78
2023/06/08 08:37:45;;;;;;;;;;;27.00;51.30;;;;;;5040727;28;19929;-78
2023/06/08 08:40:13;;;;;;;;;;;27.10;52.50;;;;;;5047455;28;20015;-78
2023/06/08 08:42:48;;;;;;;;;;;27.40;51.20;;;;;;5044715;28;19936;-78
2023/06/08 08:45:15;;;;;;;;;;;27.70;50.20;;;;;;5043126;28;19951;-78
2023/06/08 08:47:43;;;;;;;;;;;27.90;50.90;;;;;;5039395;28;20763;-78
2023/06/08 08:50:15;;;;;;;;;;;28.20;49.60;;;;;;5040772;28;20282;-78
2023/06/08 08:52:44;;;;;;;;;;;28.10;51.20;;;;;;5047787;28;19932;-78
2023/06/08 08:55:11;;;;;;;;;;;28.20;50.30;;;;;;5038718;28;20692;-78
2023/06/08 08:57:59;;;;;;;;;;;28.20;50.40;;;;;;5048126;28;20320;-78
2023/06/08 09:00:26;;;;;;;;;;;28.80;48.40;;;;;;5039540;28;19979;-78
2023/06/08 09:02:53;;;;;;;;;;;28.80;47.10;;;;;;5039057;28;20538;-78
2023/06/08 09:05:19;;;;;;;;;;;28.90;45.70;;;;;;5035968;28;19986;-78
2023/06/08 09:07:46;;;;;;;;;;;29.10;45.50;;;;;;5041960;28;19983;-78
2023/06/08 09:10:21;;;;;;;;;;;29.10;46.90;;;;;;5042756;28;20028;-78
2023/06/08 09:12:53;;;;;;;;;;;29.40;46.30;;;;;;5042059;28;19930;-78
2023/06/08 09:15:34;;;;;;;;;;;29.60;46.50;;;;;;5041093;28;19945;-78
2023/06/08 09:18:13;;;;;;;;;;;29.40;45.80;;;;;;5035945;28;19935;-78
2023/06/08 09:20:40;;;;;;;;;;;29.40;44.80;;;;;;5042716;28;19936;-77
2023/06/08 09:23:14;;;;;;;;;;;29.20;45.80;;;;;;5043883;28;19929;-78
2023/06/08 09:25:41;;;;;;;;;;;29.10;45.10;;;;;;5042715;28;19933;-78
2023/06/08 09:28:28;;;;;;;;;;;29.20;45.60;;;;;;5043543;28;19936;-80
2023/06/08 09:30:57;;;;;;;;;;;29.50;45.40;;;;;;5041362;28;19926;-80
2023/06/08 09:33:29;;;;;;;;;;;29.70;45.60;;;;;;5042347;28;19979;-81
2023/06/08 09:35:56;;;;;;;;;;;30.20;44.60;;;;;;5044266;28;19947;-81
2023/06/08 09:38:25;;;;;;;;;;;30.20;45.20;;;;;;5042931;28;19933;-80
2023/06/08 09:41:11;;;;;;;;;;;30.10;43.70;;;;;;5052886;28;19933;-80
2023/06/08 09:43:37;;;;;;;;;;;30.30;43.90;;;;;;5041097;28;20020;-80
2023/06/08 09:46:05;;;;;;;;;;;30.30;42.60;;;;;;5044872;28;20850;-72
2023/06/08 09:51:41;;;;;;;;;;;30.20;42.00;;;;;;5014546;28;19929;-78
2023/06/08 09:54:09;;;;;;;;;;;30.80;42.00;;;;;;4993345;28;19930;-72
2023/06/08 09:56:40;;;;;;;;;;;30.90;41.00;;;;;;5013238;28;19933;-71
2023/06/08 09:59:08;;;;;;;;;;;30.60;41.80;;;;;;5013980;28;19930;-71
2023/06/08 10:01:40;;;;;;;;;;;30.80;41.60;;;;;;5008346;23;19929;-78
2023/06/08 10:04:28;;;;;;;;;;;30.70;41.50;;;;;;5018911;28;19968;-78
2023/06/08 10:06:56;;;;;;;;;;;30.90;41.40;;;;;;5011350;28;19987;-79
2023/06/08 10:09:27;;;;;;;;;;;30.80;40.90;;;;;;5019675;28;20015;-78
2023/06/08 10:11:59;;;;;;;;;;;31.10;41.10;;;;;;5005490;28;19952;-79
2023/06/08 10:14:26;;;;;;;;;;;31.10;41.10;;;;;;4995723;28;19932;-79
2023/06/08 10:16:54;;;;;;;;;;;31.50;41.00;;;;;;5003577;28;20032;-78
2023/06/08 10:19:22;;;;;;;;;;;31.50;41.10;;;;;;5006678;28;19932;-78
2023/06/08 10:21:51;;;;;;;;;;;31.50;41.20;;;;;;5016896;28;20325;-79
2023/06/08 10:24:19;;;;;;;;;;;31.90;41.80;;;;;;5027597;28;19975;-79
2023/06/08 10:26:48;;;;;;;;;;;32.00;39.90;;;;;;5013381;28;19937;-78
2023/06/08 10:29:15;;;;;;;;;;;32.50;39.50;;;;;;5031449;28;19995;-79
2023/06/08 10:31:49;;;;;;;;;;;32.60;39.30;;;;;;5030365;28;19975;-79
2023/06/08 10:34:19;;;;;;;;;;;32.40;41.10;;;;;;5029636;28;19929;-79
2023/06/08 10:36:46;;;;;;;;;;;32.20;40.20;;;;;;5029025;28;19968;-78
2023/06/08 10:39:14;;;;;;;;;;;32.00;40.70;;;;;;5035870;28;19987;-78
2023/06/08 10:41:44;;;;;;;;;;;32.00;40.20;;;;;;5038089;28;20418;-78
2023/06/08 10:44:26;;;;;;;;;;;31.90;40.60;;;;;;5020613;28;19935;-78
2023/06/08 10:47:06;;;;;;;;;;;32.00;40.60;;;;;;5032617;28;19939;-78
2023/06/08 10:49:34;;;;;;;;;;;31.90;41.00;;;;;;5025928;28;19972;-78
2023/06/08 10:52:02;;;;;;;;;;;31.90;40.70;;;;;;5032641;28;19929;-78
2023/06/08 10:54:30;;;;;;;;;;;32.30;40.40;;;;;;5026220;28;19932;-78
2023/06/08 10:56:58;;;;;;;;;;;32.10;39.90;;;;;;5029637;28;19928;-79
2023/06/08 10:59:41;;;;;;;;;;;32.10;38.10;;;;;;5033100;28;19994;-79
2023/06/08 11:02:08;;;;;;;;;;;31.90;40.10;;;;;;5035350;28;19971;-79
2023/06/08 11:04:35;;;;;;;;;;;31.80;41.00;;;;;;5018927;28;20401;-79
2023/06/08 11:07:23;;;;;;;;;;;31.90;40.20;;;;;;5036687;28;20032;-78
2023/06/08 11:09:50;;;;;;;;;;;31.60;40.00;;;;;;5041706;28;20588;-78
2023/06/08 11:12:19;;;;;;;;;;;31.30;42.20;;;;;;5032506;28;20397;-79
2023/06/08 11:14:47;;;;;;;;;;;31.30;41.50;;;;;;5010979;28;19929;-79
2023/06/08 11:17:14;;;;;;;;;;;31.30;41.00;;;;;;5027966;28;19959;-79
2023/06/08 11:19:40;;;;;;;;;;;31.30;41.70;;;;;;5026943;28;20537;-77
2023/06/08 11:22:07;;;;;;;;;;;31.90;41.10;;;;;;5028867;28;19928;-78
2023/06/08 11:24:34;;;;;;;;;;;32.10;40.80;;;;;;5028276;28;20381;-77
2023/06/08 11:27:01;;;;;;;;;;;32.20;40.80;;;;;;5027007;28;19934;-77
2023/06/08 11:29:31;;;;;;;;;;;32.40;40.20;;;;;;5010190;28;19940;-77
2023/06/08 11:32:11;;;;;;;;;;;31.90;39.80;;;;;;5005707;28;19937;-78
2023/06/08 11:34:37;;;;;;;;;;;31.80;40.20;;;;;;5025310;28;20008;-77
2023/06/08 11:37:04;;;;;;;;;;;31.60;40.90;;;;;;5026958;28;19960;-77
2023/06/08 11:39:33;;;;;;;;;;;31.70;41.20;;;;;;5020009;28;19968;-77
2023/06/08 11:42:00;;;;;;;;;;;31.70;41.20;;;;;;5024381;28;19928;-77
2023/06/08 11:44:27;;;;;;;;;;;32.10;40.90;;;;;;5041583;28;19935;-77
2023/06/08 11:46:54;;;;;;;;;;;32.20;41.30;;;;;;5029877;28;19935;-77
2023/06/08 11:49:20;;;;;;;;;;;32.40;40.70;;;;;;5034018;28;19933;-77
2023/06/08 11:51:49;;;;;;;;;;;32.30;40.70;;;;;;5027571;28;19940;-77
2023/06/08 11:54:16;;;;;;;;;;;32.20;40.20;;;;;;5018513;28;20366;-77
2023/06/08 11:56:47;;;;;;;;;;;32.50;40.00;;;;;;5022313;28;20047;-77
2023/06/08 11:59:14;;;;;;;;;;;32.60;40.50;;;;;;5022840;28;19936;-76
2023/06/08 12:01:54;;;;;;;;;;;32.70;38.40;;;;;;5024668;28;19929;-76
2023/06/08 12:04:28;;;;;;;;;;;32.80;39.00;;;;;;5025259;28;20209;-77
2023/06/08 12:06:55;;;;;;;;;;;32.80;38.60;;;;;;5013796;28;19937;-77
2023/06/08 12:09:22;;;;;;;;;;;32.80;38.80;;;;;;5001751;28;19929;-77
2023/06/08 12:11:48;;;;;;;;;;;32.70;38.80;;;;;;5028013;28;19929;-77
2023/06/08 12:14:15;;;;;;;;;;;33.10;39.20;;;;;;5029554;28;19965;-77
2023/06/08 12:16:42;;;;;;;;;;;33.00;38.10;;;;;;5037754;28;20019;-77
2023/06/08 12:19:09;;;;;;;;;;;33.10;37.20;;;;;;5038337;28;19932;-77
2023/06/08 12:21:40;;;;;;;;;;;32.90;37.00;;;;;;5033735;28;20027;-76
2023/06/08 12:24:07;;;;;;;;;;;32.40;39.20;;;;;;5035649;28;20040;-76
2023/06/08 12:26:34;;;;;;;;;;;32.10;37.50;;;;;;5033760;28;19982;-77
2023/06/08 12:29:05;;;;;;;;;;;31.50;39.20;;;;;;5025499;28;19959;-77
2023/06/08 12:31:33;;;;;;;;;;;31.20;40.30;;;;;;5012137;28;19929;-77
2023/06/08 12:34:00;;;;;;;;;;;31.30;40.50;;;;;;5007542;28;19929;-77
2023/06/08 12:36:26;;;;;;;;;;;31.20;39.40;;;;;;5023851;28;20041;-77
2023/06/08 12:38:55;;;;;;;;;;;31.10;40.00;;;;;;5029762;28;19995;-77
2023/06/08 12:41:22;;;;;;;;;;;30.70;43.40;;;;;;5023572;28;20719;-77
2023/06/08 12:43:50;;;;;;;;;;;30.80;43.30;;;;;;5025450;28;20252;-77
2023/06/08 12:46:18;;;;;;;;;;;30.80;46.00;;;;;;5036723;28;20784;-77
2023/06/08 12:48:47;;;;;;;;;;;30.90;43.70;;;;;;5024677;28;19936;-77
2023/06/08 12:51:14;;;;;;;;;;;30.90;41.10;;;;;;5017861;28;20652;-77
2023/06/08 12:53:41;;;;;;;;;;;30.60;41.90;;;;;;5035027;28;19929;-76
2023/06/08 12:56:08;;;;;;;;;;;30.70;41.80;;;;;;5042252;28;20039;-77
2023/06/08 12:58:35;;;;;;;;;;;30.50;43.50;;;;;;5031834;28;20027;-77
2023/06/08 13:01:01;;;;;;;;;;;30.80;44.00;;;;;;5031583;28;20715;-77
2023/06/08 13:03:28;;;;;;;;;;;30.40;42.40;;;;;;5023279;28;19936;-76
2023/06/08 13:05:55;;;;;;;;;;;30.20;43.40;;;;;;5029581;28;20459;-76
2023/06/08 13:08:22;;;;;;;;;;;30.10;44.10;;;;;;5029158;28;19975;-76
2023/06/08 13:10:49;;;;;;;;;;;30.40;44.10;;;;;;5020402;28;20388;-76
2023/06/08 13:13:16;;;;;;;;;;;30.50;44.50;;;;;;5005274;28;19941;-76
2023/06/08 13:15:42;;;;;;;;;;;30.70;45.30;;;;;;4999105;28;19926;-76
2023/06/08 13:18:10;;;;;;;;;;;30.90;42.90;;;;;;5017710;28;19925;-76
2023/06/08 13:20:37;;;;;;;;;;;31.20;42.00;;;;;;5011257;28;19994;-76
2023/06/08 13:23:04;;;;;;;;;;;31.40;41.10;;;;;;5019279;28;19979;-76
2023/06/08 13:25:31;;;;;;;;;;;31.50;42.10;;;;;;5013719;28;20074;-77
2023/06/08 13:27:58;;;;;;;;;;;31.50;41.00;;;;;;5012114;28;19929;-76
2023/06/08 13:30:25;;;;;;;;;;;31.70;41.00;;;;;;5029494;28;19976;-76
2023/06/08 13:32:59;;;;;;;;;;;31.80;39.60;;;;;;5024115;28;19996;-76
2023/06/08 13:35:30;;;;;;;;;;;31.50;41.10;;;;;;5022020;28;19935;-76
2023/06/08 13:37:57;;;;;;;;;;;31.40;42.20;;;;;;4997961;28;19944;-76
2023/06/08 13:40:24;;;;;;;;;;;31.60;41.30;;;;;;5005132;28;19925;-76
2023/06/08 13:42:51;;;;;;;;;;;31.70;40.70;;;;;;5032365;28;19975;-76
2023/06/08 13:45:20;;;;;;;;;;;31.70;40.40;;;;;;5006209;28;20019;-79
2023/06/08 13:47:48;;;;;;;;;;;31.80;40.00;;;;;;4992672;28;19933;-76
2023/06/08 13:50:14;;;;;;;;;;;31.60;39.70;;;;;;5015483;28;19928;-81
2023/06/08 13:52:42;;;;;;;;;;;31.80;39.50;;;;;;5007392;28;19956;-77
2023/06/08 13:55:09;;;;;;;;;;;31.50;39.20;;;;;;5021013;28;19960;-77
2023/06/08 13:57:36;;;;;;;;;;;31.30;38.90;;;;;;5022654;28;20377;-77
2023/06/08 14:00:04;;;;;;;;;;;31.30;39.90;;;;;;5003983;28;20032;-77
2023/06/08 14:02:31;;;;;;;;;;;31.10;39.10;;;;;;5022211;28;20410;-77
2023/06/08 14:04:59;;;;;;;;;;;31.10;39.40;;;;;;5020605;28;19936;-76
2023/06/08 14:07:26;;;;;;;;;;;31.10;39.40;;;;;;5022281;28;19929;-77
2023/06/08 14:09:53;;;;;;;;;;;31.10;39.10;;;;;;5023027;28;19984;-77
2023/06/08 14:12:20;;;;;;;;;;;31.10;38.40;;;;;;5010115;28;19929;-77
2023/06/08 14:14:49;;;;;;;;;;;31.30;38.80;;;;;;5027342;28;19929;-77
2023/06/08 14:17:16;;;;;;;;;;;31.30;38.30;;;;;;5027402;28;20015;-76
2023/06/08 14:19:43;;;;;;;;;;;31.00;38.90;;;;;;5032312;28;20376;-77
2023/06/08 14:22:10;;;;;;;;;;;30.90;41.00;;;;;;5031503;28;19996;-76
2023/06/08 14:24:36;;;;;;;;;;;30.90;40.70;;;;;;5005805;28;20687;-76
2023/06/08 14:27:03;;;;;;;;;;;30.90;40.80;;;;;;5013532;28;20451;-76
2023/06/08 14:29:30;;;;;;;;;;;30.80;41.50;;;;;;5024912;28;19956;-77